createdAt,value
2018-03-07T00:00:59.327Z,171.77
2018-03-07T00:03:26.844Z,161.43
2018-03-07T00:05:54.500Z,161.27
2018-03-07T00:08:22.260Z,176.83
2018-03-07T00:10:49.758Z,168.50
2018-03-07T00:13:17.479Z,164.33
2018-03-07T00:15:45.196Z,156.97
2018-03-07T00:18:12.703Z,173.87
2018-03-07T00:20:40.212Z,163.60
2018-03-07T00:23:07.875Z,159.17
2018-03-07T00:25:35.382Z,164.70
2018-03-07T00:28:02.891Z,165.07
2018-03-07T00:30:30.795Z,178.63
2018-03-07T00:32:58.303Z,167.70
2018-03-07T00:35:26.488Z,185.13
2018-03-07T00:37:54.159Z,174.93
2018-03-07T00:40:21.668Z,172.80
2018-03-07T00:42:49.419Z,182.50
2018-03-07T00:45:17.056Z,182.53
2018-03-07T00:47:44.637Z,175.97
2018-03-07T00:50:12.260Z,182.90
2018-03-07T00:52:39.772Z,189.70
2018-03-07T00:55:07.316Z,173.20
2018-03-07T00:57:34.823Z,194.83
2018-03-07T01:00:02.512Z,173.70
2018-03-07T01:02:30.034Z,166.53
2018-03-07T01:04:57.539Z,178.93
2018-03-07T01:07:25.038Z,175.20
2018-03-07T01:09:52.551Z,189.60
2018-03-07T01:12:20.153Z,182.37
2018-03-07T01:14:47.634Z,184.50
2018-03-07T01:17:15.216Z,183.27
2018-03-07T01:19:42.720Z,185.70
2018-03-07T01:22:10.239Z,173.53
2018-03-07T01:24:37.743Z,195.37
2018-03-07T01:27:05.261Z,180.03
2018-03-07T01:29:32.801Z,173.90
2018-03-07T01:32:00.414Z,180.87
2018-03-07T01:34:27.965Z,184.50
2018-03-07T01:36:55.635Z,183.67
2018-03-07T01:39:23.370Z,196.40
2018-03-07T01:41:50.888Z,175.53
2018-03-07T01:44:18.392Z,196.07
2018-03-07T01:46:45.930Z,178.83
2018-03-07T01:49:13.431Z,186.33
2018-03-07T01:51:52.940Z,184.57
2018-03-07T01:54:20.439Z,177.77
2018-03-07T01:56:48.172Z,177.20
2018-03-07T01:59:15.676Z,170.67
2018-03-07T02:01:43.184Z,183.30
2018-03-07T02:04:10.687Z,163.60
2018-03-07T02:06:38.306Z,174.97
2018-03-07T02:09:05.815Z,186.27
2018-03-07T02:11:33.328Z,176.17
2018-03-07T02:14:00.971Z,183.10
2018-03-07T02:16:28.482Z,179.53
2018-03-07T02:18:56.005Z,169.63
2018-03-07T02:21:23.652Z,177.33
2018-03-07T02:23:51.156Z,185.40
2018-03-07T02:26:18.659Z,180.17
2018-03-07T02:28:46.263Z,173.67
2018-03-07T02:31:16.691Z,178.50
2018-03-07T02:33:44.199Z,173.87
2018-03-07T02:36:23.663Z,170.53
2018-03-07T02:38:51.179Z,172.20
2018-03-07T02:41:18.718Z,184.13
2018-03-07T02:43:46.243Z,190.80
2018-03-07T02:46:13.858Z,178.43
2018-03-07T02:48:41.645Z,187.27
2018-03-07T02:51:09.179Z,175.17
2018-03-07T02:53:36.686Z,183.77
2018-03-07T02:56:04.299Z,189.73
2018-03-07T02:58:32.035Z,179.83
2018-03-07T03:00:59.542Z,175.13
2018-03-07T03:03:27.331Z,191.63
2018-03-07T03:05:54.852Z,176.70
2018-03-07T03:08:22.364Z,180.47
2018-03-07T03:13:23.586Z,170.07
2018-03-07T03:15:51.092Z,194.47
2018-03-07T03:18:18.778Z,194.17
2018-03-07T03:20:46.395Z,181.33
2018-03-07T03:23:14.952Z,164.60
2018-03-07T03:25:42.490Z,214.10
2018-03-07T03:28:10.943Z,182.83
2018-03-07T03:30:38.460Z,176.87
2018-03-07T03:33:05.998Z,170.30
2018-03-07T03:35:33.492Z,174.97
2018-03-07T03:38:01.233Z,185.40
2018-03-07T03:40:28.731Z,188.13
2018-03-07T03:42:56.252Z,189.90
2018-03-07T03:45:23.894Z,190.07
2018-03-07T03:47:51.391Z,200.77
2018-03-07T03:50:18.904Z,180.67
2018-03-07T03:52:46.422Z,188.07
2018-03-07T03:55:14.747Z,182.63
2018-03-07T03:57:42.275Z,190.07
2018-03-07T04:00:09.859Z,197.33
2018-03-07T04:02:37.373Z,180.07
2018-03-07T04:05:04.871Z,188.83
2018-03-07T04:07:32.380Z,199.43
2018-03-07T04:10:00.666Z,194.30
2018-03-07T04:12:28.735Z,182.93
2018-03-07T04:14:56.248Z,172.93
2018-03-07T04:17:23.868Z,199.37
2018-03-07T04:19:51.536Z,203.70
2018-03-07T04:22:19.146Z,195.47
2018-03-07T04:24:46.893Z,197.10
2018-03-07T04:27:14.655Z,197.40
2018-03-07T04:29:42.172Z,192.23
2018-03-07T04:32:09.676Z,190.23
2018-03-07T04:34:37.192Z,188.63
2018-03-07T04:37:04.751Z,203.90
2018-03-07T04:39:32.272Z,185.53
2018-03-07T04:42:00.172Z,186.43
2018-03-07T04:44:27.679Z,195.23
2018-03-07T04:46:55.192Z,187.10
2018-03-07T04:49:22.914Z,191.97
2018-03-07T04:51:50.443Z,199.67
2018-03-07T04:54:17.974Z,190.53
2018-03-07T04:56:45.486Z,202.50
2018-03-07T04:59:13.147Z,203.50
2018-03-07T05:01:40.765Z,195.23
2018-03-07T05:04:08.354Z,185.20
2018-03-07T05:06:35.861Z,201.33
2018-03-07T05:09:03.364Z,190.83
2018-03-07T05:11:30.878Z,207.10
2018-03-07T05:13:58.382Z,202.17
2018-03-07T05:16:25.938Z,212.73
2018-03-07T05:18:53.443Z,193.07
2018-03-07T05:21:21.148Z,207.77
2018-03-07T05:23:48.643Z,199.73
2018-03-07T05:26:16.161Z,196.27
2018-03-07T05:28:43.870Z,201.57
2018-03-07T05:31:11.388Z,205.10
2018-03-07T05:33:38.874Z,219.27
2018-03-07T05:36:07.170Z,205.47
2018-03-07T05:38:34.666Z,203.03
2018-03-07T05:41:02.202Z,218.83
2018-03-07T05:43:29.706Z,206.83
2018-03-07T05:45:57.234Z,199.23
2018-03-07T05:48:24.867Z,201.23
2018-03-07T05:50:52.465Z,196.63
2018-03-07T05:53:20.019Z,205.37
2018-03-07T05:55:47.785Z,226.57
2018-03-07T05:58:15.309Z,233.50
2018-03-07T06:00:44.048Z,227.57
2018-03-07T06:03:13.244Z,211.47
2018-03-07T06:05:41.048Z,221.13
2018-03-07T06:08:09.451Z,224.57
2018-03-07T06:10:36.952Z,232.17
2018-03-07T06:13:04.563Z,233.43
2018-03-07T06:15:32.168Z,221.30
2018-03-07T06:17:59.699Z,250.77
2018-03-07T06:20:27.491Z,241.23
2018-03-07T06:22:56.776Z,233.10
2018-03-07T06:25:24.278Z,234.33
2018-03-07T06:27:51.792Z,234.87
2018-03-07T06:30:19.460Z,247.17
2018-03-07T06:32:46.974Z,246.17
2018-03-07T06:35:14.496Z,246.47
2018-03-07T06:37:43.089Z,252.60
2018-03-07T06:40:10.592Z,236.43
2018-03-07T06:42:38.242Z,231.63
2018-03-07T06:45:05.741Z,229.40
2018-03-07T06:47:33.715Z,242.53
2018-03-07T06:50:01.260Z,241.37
2018-03-07T06:52:28.819Z,232.30
2018-03-07T06:54:56.322Z,239.60
2018-03-07T06:57:24.616Z,244.43
2018-03-07T06:59:52.269Z,354.20
2018-03-07T07:02:20.063Z,239.67
2018-03-07T07:04:47.827Z,247.10
2018-03-07T07:07:15.368Z,253.03
2018-03-07T07:09:43.372Z,233.17
2018-03-07T07:12:11.129Z,237.77
2018-03-07T07:14:38.783Z,236.17
2018-03-07T07:17:06.303Z,243.73
2018-03-07T07:19:34.633Z,247.43
2018-03-07T07:22:02.203Z,253.37
2018-03-07T07:24:29.715Z,251.53
2018-03-07T07:26:57.226Z,258.03
2018-03-07T07:29:24.755Z,272.27
2018-03-07T07:31:52.284Z,250.43
2018-03-07T07:34:19.805Z,241.83
2018-03-07T07:36:47.311Z,253.00
2018-03-07T07:39:15.331Z,259.47
2018-03-07T07:41:42.828Z,249.37
2018-03-07T07:44:10.344Z,267.33
2018-03-07T07:46:37.858Z,242.80
2018-03-07T07:49:05.368Z,270.33
2018-03-07T07:51:32.881Z,249.17
2018-03-07T07:54:00.673Z,269.83
2018-03-07T07:56:28.415Z,245.13
2018-03-07T07:58:56.181Z,252.97
2018-03-07T08:01:23.697Z,261.10
2018-03-07T08:03:51.400Z,252.73
2018-03-07T08:06:19.155Z,260.33
2018-03-07T08:08:46.680Z,262.30
2018-03-07T08:11:14.183Z,250.97
2018-03-07T08:13:41.716Z,271.73
2018-03-07T08:16:09.220Z,270.00
2018-03-07T08:18:36.738Z,263.33
2018-03-07T08:21:04.487Z,247.53
2018-03-07T08:23:31.988Z,252.77
2018-03-07T08:25:59.739Z,274.87
2018-03-07T08:28:27.244Z,274.60
2018-03-07T08:30:54.808Z,268.57
2018-03-07T08:33:22.323Z,248.83
2018-03-07T08:35:50.363Z,241.00
2018-03-07T08:38:17.871Z,268.20
2018-03-07T08:40:45.384Z,259.00
2018-03-07T08:43:13.007Z,270.23
2018-03-07T08:45:40.529Z,250.97
2018-03-07T08:48:08.042Z,268.67
2018-03-07T08:50:35.607Z,236.60
2018-03-07T08:53:03.295Z,253.83
2018-03-07T08:55:30.819Z,255.17
2018-03-07T08:57:58.580Z,244.37
2018-03-07T09:00:26.233Z,269.50
2018-03-07T09:02:53.736Z,265.87
2018-03-07T09:05:22.756Z,249.17
2018-03-07T09:07:50.882Z,260.70
2018-03-07T09:10:18.560Z,239.97
2018-03-07T09:12:46.312Z,244.63
2018-03-07T09:15:13.823Z,245.00
2018-03-07T09:17:41.376Z,238.60
2018-03-07T09:20:09.692Z,239.60
2018-03-07T09:22:37.423Z,255.77
2018-03-07T09:25:04.923Z,247.50
2018-03-07T09:27:32.592Z,246.17
2018-03-07T09:30:00.096Z,243.27
2018-03-07T09:32:27.611Z,235.37
2018-03-07T09:34:55.268Z,235.30
2018-03-07T09:37:22.779Z,239.37
2018-03-07T09:39:50.483Z,260.83
2018-03-07T09:42:18.003Z,235.90
2018-03-07T09:44:45.508Z,248.33
2018-03-07T09:47:13.180Z,252.13
2018-03-07T09:49:40.923Z,254.60
2018-03-07T09:52:08.699Z,237.87
2018-03-07T09:54:36.459Z,239.53
2018-03-07T09:57:03.983Z,256.37
2018-03-07T09:59:31.479Z,249.80
2018-03-07T10:01:59.159Z,247.03
2018-03-07T10:04:26.653Z,250.57
2018-03-07T10:06:54.118Z,241.77
2018-03-07T10:09:21.819Z,219.70
2018-03-07T10:11:49.330Z,229.80
2018-03-07T10:14:17.023Z,228.33
2018-03-07T10:16:44.536Z,255.27
2018-03-07T10:19:12.239Z,249.23
2018-03-07T10:21:39.754Z,232.83
2018-03-07T10:24:07.257Z,241.23
2018-03-07T10:26:34.921Z,238.30
2018-03-07T10:29:02.787Z,258.90
2018-03-07T10:31:30.296Z,231.47
2018-03-07T10:33:58.824Z,246.77
2018-03-07T10:36:26.333Z,250.60
2018-03-07T10:38:54.303Z,235.27
2018-03-07T10:41:21.816Z,220.70
2018-03-07T10:43:49.318Z,240.50
2018-03-07T10:46:16.823Z,223.73
2018-03-07T10:48:44.356Z,222.67
2018-03-07T10:51:11.848Z,213.07
2018-03-07T10:53:39.347Z,216.37
2018-03-07T10:56:06.855Z,224.57
2018-03-07T10:58:34.626Z,213.67
2018-03-07T11:01:02.128Z,225.17
2018-03-07T11:03:29.916Z,195.10
2018-03-07T11:05:57.422Z,214.53
2018-03-07T11:08:25.016Z,227.57
2018-03-07T11:10:52.515Z,214.03
2018-03-07T11:13:20.037Z,209.77
2018-03-07T11:15:47.567Z,210.47
2018-03-07T11:18:15.979Z,188.17
2018-03-07T11:20:43.680Z,198.17
2018-03-07T11:23:11.204Z,208.80
2018-03-07T11:25:39.097Z,217.27
2018-03-07T11:28:06.639Z,224.10
2018-03-07T11:30:34.314Z,206.80
2018-03-07T11:33:01.829Z,183.50
2018-03-07T11:35:29.388Z,195.13
2018-03-07T11:37:57.775Z,188.27
2018-03-07T11:40:25.372Z,187.63
2018-03-07T11:42:52.928Z,192.73
2018-03-07T11:45:20.589Z,194.87
2018-03-07T11:47:48.917Z,178.53
2018-03-07T11:50:16.456Z,194.10
2018-03-07T11:52:43.957Z,187.77
2018-03-07T11:55:11.468Z,186.53
2018-03-07T11:57:38.994Z,184.60
2018-03-07T12:00:06.675Z,177.97
2018-03-07T12:02:34.322Z,200.03
2018-03-07T12:05:01.840Z,182.17
2018-03-07T12:07:29.502Z,190.80
2018-03-07T12:09:57.012Z,184.80
2018-03-07T12:12:24.526Z,175.53
2018-03-07T12:14:52.039Z,170.90
2018-03-07T12:17:19.655Z,184.77
2018-03-07T12:19:47.310Z,189.17
2018-03-07T12:22:14.834Z,181.37
2018-03-07T12:24:42.341Z,175.83
2018-03-07T12:27:09.943Z,181.90
2018-03-07T12:29:38.492Z,171.23
2018-03-07T12:32:06.016Z,163.73
2018-03-07T12:34:33.546Z,160.23
2018-03-07T12:37:01.060Z,185.50
2018-03-07T12:39:28.559Z,189.30
2018-03-07T12:41:56.111Z,197.43
2018-03-07T12:44:23.620Z,198.87
2018-03-07T12:46:51.124Z,185.47
2018-03-07T12:49:18.711Z,195.27
2018-03-07T12:51:46.247Z,178.33
2018-03-07T12:54:13.747Z,178.40
2018-03-07T12:56:41.507Z,180.87
2018-03-07T12:59:09.196Z,184.30
2018-03-07T13:01:36.768Z,175.93
2018-03-07T13:04:04.273Z,172.83
2018-03-07T13:06:32.608Z,173.60
2018-03-07T13:09:00.107Z,161.70
2018-03-07T13:11:27.621Z,162.33
2018-03-07T13:13:55.113Z,154.67
2018-03-07T13:16:22.652Z,151.30
2018-03-07T13:18:50.363Z,158.40
2018-03-07T13:21:17.864Z,158.50
2018-03-07T13:23:45.391Z,149.90
2018-03-07T13:26:12.888Z,158.87
2018-03-07T13:28:40.403Z,152.33
2018-03-07T13:31:07.971Z,160.10
2018-03-07T13:33:36.384Z,143.63
2018-03-07T13:36:04.024Z,146.00
2018-03-07T13:38:31.539Z,145.77
2018-03-07T13:40:59.348Z,146.30
2018-03-07T13:43:26.856Z,146.73
2018-03-07T13:45:54.518Z,144.77
2018-03-07T13:48:22.319Z,148.07
2018-03-07T13:50:50.083Z,151.53
2018-03-07T13:53:17.847Z,137.23
2018-03-07T13:55:45.355Z,131.80
2018-03-07T13:58:12.879Z,135.30
2018-03-07T14:00:40.501Z,142.03
2018-03-07T14:03:08.028Z,140.13
2018-03-07T14:05:35.530Z,150.30
2018-03-07T14:08:03.204Z,145.00
2018-03-07T14:10:30.963Z,147.10
2018-03-07T14:12:58.724Z,149.03
2018-03-07T14:15:26.232Z,138.87
2018-03-07T14:17:54.504Z,154.37
2018-03-07T14:20:22.023Z,135.97
2018-03-07T14:22:49.511Z,134.47
2018-03-07T14:25:17.248Z,137.53
2018-03-07T14:27:47.694Z,138.37
2018-03-07T14:30:15.355Z,141.87
2018-03-07T14:32:43.067Z,130.10
2018-03-07T14:35:10.719Z,144.23
2018-03-07T14:37:38.512Z,148.17
2018-03-07T14:40:06.081Z,141.67
2018-03-07T14:42:34.708Z,144.30
2018-03-07T14:45:02.176Z,141.63
2018-03-07T14:47:29.680Z,140.00
2018-03-07T14:49:57.340Z,141.57
2018-03-07T14:52:24.966Z,130.63
2018-03-07T14:54:52.467Z,139.77
2018-03-07T14:57:19.972Z,143.17
2018-03-07T14:59:47.492Z,135.73
2018-03-07T15:02:15.228Z,134.23
2018-03-07T15:04:42.755Z,139.70
2018-03-07T15:07:10.269Z,129.87
2018-03-07T15:09:37.784Z,130.27
2018-03-07T15:12:05.333Z,131.03
2018-03-07T15:14:33.441Z,122.13
2018-03-07T15:17:00.944Z,125.97
2018-03-07T15:19:28.825Z,132.30
2018-03-07T15:21:56.839Z,134.77
2018-03-07T15:24:24.498Z,129.33
2018-03-07T15:26:52.122Z,132.30
2018-03-07T15:29:19.679Z,126.17
2018-03-07T15:31:47.187Z,127.10
2018-03-07T15:34:14.755Z,130.73
2018-03-07T15:36:43.024Z,128.50
2018-03-07T15:39:10.578Z,127.57
2018-03-07T15:41:38.215Z,115.00
2018-03-07T15:44:05.720Z,110.73
2018-03-07T15:46:33.281Z,117.87
2018-03-07T15:49:01.566Z,130.20
2018-03-07T15:51:29.080Z,117.90
2018-03-07T15:53:56.593Z,113.50
2018-03-07T15:56:24.164Z,117.83
2018-03-07T15:58:51.656Z,119.30
2018-03-07T16:01:19.176Z,116.00
2018-03-07T16:03:46.820Z,126.80
2018-03-07T16:06:14.315Z,117.83
2018-03-07T16:08:42.530Z,121.53
2018-03-07T16:11:11.073Z,120.57
2018-03-07T16:13:38.836Z,129.63
2018-03-07T16:16:06.597Z,113.47
2018-03-07T16:18:34.207Z,112.40
2018-03-07T16:21:02.770Z,119.13
2018-03-07T16:23:30.274Z,107.47
2018-03-07T16:25:58.039Z,108.60
2018-03-07T16:28:25.789Z,108.47
2018-03-07T16:30:53.295Z,111.47
2018-03-07T16:33:20.805Z,118.97
2018-03-07T16:35:48.396Z,109.40
2018-03-07T16:38:15.904Z,105.20
2018-03-07T16:40:44.347Z,117.57
2018-03-07T16:43:11.853Z,117.10
2018-03-07T16:45:39.859Z,122.20
2018-03-07T16:48:07.377Z,122.23
2018-03-07T16:50:35.693Z,126.97
2018-03-07T16:53:03.198Z,121.00
2018-03-07T16:55:30.704Z,112.07
2018-03-07T16:57:58.220Z,114.70
2018-03-07T17:00:25.742Z,119.17
2018-03-07T17:02:53.251Z,104.73
2018-03-07T17:05:20.772Z,113.20
2018-03-07T17:07:48.291Z,103.77
2018-03-07T17:10:15.996Z,103.50
2018-03-07T17:12:43.714Z,115.77
2018-03-07T17:15:11.196Z,106.00
2018-03-07T17:17:38.748Z,99.03
2018-03-07T17:20:06.273Z,103.13
2018-03-07T17:22:33.788Z,102.67
2018-03-07T17:25:01.315Z,102.00
2018-03-07T17:27:28.832Z,114.87
2018-03-07T17:29:56.410Z,102.57
2018-03-07T17:32:24.195Z,107.50
2018-03-07T17:34:51.700Z,106.07
2018-03-07T17:37:19.604Z,104.40
2018-03-07T17:39:47.669Z,105.17
2018-03-07T17:42:15.359Z,101.50
2018-03-07T17:44:43.438Z,108.50
2018-03-07T17:47:11.819Z,98.57
2018-03-07T17:49:40.450Z,105.07
2018-03-07T17:52:08.164Z,111.87
2018-03-07T17:54:35.875Z,110.30
2018-03-07T17:57:04.523Z,104.70
2018-03-07T17:59:32.811Z,100.23
2018-03-07T18:02:01.103Z,104.63
2018-03-07T18:04:28.603Z,102.67
2018-03-07T18:06:56.300Z,105.30
2018-03-07T18:09:24.006Z,109.87
2018-03-07T18:11:51.555Z,97.23
2018-03-07T18:14:19.135Z,98.97
2018-03-07T18:16:46.647Z,92.20
2018-03-07T18:19:14.144Z,98.00
2018-03-07T18:21:41.955Z,95.57
2018-03-07T18:24:09.705Z,86.40
2018-03-07T18:26:38.188Z,86.10
2018-03-07T18:29:05.840Z,75.27
2018-03-07T18:31:33.372Z,80.20
2018-03-07T18:34:01.046Z,77.67
2018-03-07T18:36:28.587Z,77.00
2018-03-07T18:38:56.113Z,76.00
2018-03-07T18:41:23.688Z,77.37
2018-03-07T18:43:51.204Z,86.23
2018-03-07T18:46:18.824Z,87.33
2018-03-07T18:48:47.002Z,87.20
2018-03-07T18:51:14.513Z,76.67
2018-03-07T18:53:42.015Z,84.17
2018-03-07T18:56:09.713Z,87.47
2018-03-07T18:58:37.456Z,82.20
2018-03-07T19:01:04.955Z,83.43
2018-03-07T19:03:32.575Z,81.67
2018-03-07T19:06:00.136Z,81.63
2018-03-07T19:08:27.651Z,83.60
2018-03-07T19:10:55.371Z,79.47
2018-03-07T19:13:22.874Z,72.87
2018-03-07T19:15:55.075Z,79.87
2018-03-07T19:18:22.591Z,74.30
2018-03-07T19:20:50.116Z,70.50
2018-03-07T19:23:17.885Z,67.03
2018-03-07T19:25:46.095Z,81.37
2018-03-07T19:28:13.608Z,69.73
2018-03-07T19:30:41.095Z,81.50
2018-03-07T19:33:08.640Z,89.60
2018-03-07T19:35:36.392Z,82.77
2018-03-07T19:38:03.896Z,82.63
2018-03-07T19:40:31.454Z,76.93
2018-03-07T19:42:59.703Z,87.63
2018-03-07T19:45:27.440Z,87.83
2018-03-07T19:47:54.940Z,88.80
2018-03-07T19:50:22.650Z,85.53
2018-03-07T19:52:50.141Z,84.43
2018-03-07T19:55:17.892Z,85.43
2018-03-07T19:57:45.590Z,89.97
2018-03-07T20:00:13.161Z,85.40
2018-03-07T20:02:40.620Z,90.27
2018-03-07T20:05:08.133Z,89.00
2018-03-07T20:07:35.770Z,86.53
2018-03-07T20:10:03.290Z,92.57
2018-03-07T20:12:30.987Z,80.80
2018-03-07T20:14:58.488Z,93.93
2018-03-07T20:17:26.159Z,95.73
2018-03-07T20:19:53.674Z,98.43
2018-03-07T20:22:21.179Z,88.80
2018-03-07T20:24:48.875Z,89.20
2018-03-07T20:27:16.393Z,92.43
2018-03-07T20:29:44.060Z,99.63
2018-03-07T20:32:11.891Z,97.60
2018-03-07T20:34:39.388Z,90.63
2018-03-07T20:37:07.092Z,95.10
2018-03-07T20:39:34.596Z,88.40
2018-03-07T20:42:02.277Z,84.00
2018-03-07T20:44:30.587Z,94.17
2018-03-07T20:46:58.253Z,91.33
2018-03-07T20:49:26.856Z,91.00
2018-03-07T20:51:54.591Z,90.23
2018-03-07T20:54:22.100Z,93.63
2018-03-07T20:56:49.836Z,85.53
2018-03-07T20:59:17.339Z,90.00
2018-03-07T21:01:44.899Z,94.50
2018-03-07T21:04:12.380Z,93.80
2018-03-07T21:06:39.899Z,93.97
2018-03-07T21:09:07.391Z,97.30
2018-03-07T21:11:35.297Z,93.20
2018-03-07T21:14:02.800Z,92.83
2018-03-07T21:16:30.375Z,90.63
2018-03-07T21:18:58.149Z,97.37
2018-03-07T21:21:25.645Z,92.47
2018-03-07T21:23:53.979Z,95.87
2018-03-07T21:26:21.498Z,100.33
2018-03-07T21:28:49.524Z,99.73
2018-03-07T21:31:17.029Z,97.43
2018-03-07T21:33:44.527Z,98.90
2018-03-07T21:36:12.034Z,102.07
2018-03-07T21:38:40.555Z,100.80
2018-03-07T21:41:08.322Z,94.53
2018-03-07T21:43:35.826Z,95.23
2018-03-07T21:46:03.538Z,108.43
2018-03-07T21:48:31.320Z,94.77
2018-03-07T21:50:59.071Z,91.20
2018-03-07T21:53:26.579Z,101.93
2018-03-07T21:55:54.291Z,115.47
2018-03-07T21:58:21.799Z,108.53
2018-03-07T22:00:49.829Z,99.63
2018-03-07T22:03:17.323Z,102.70
2018-03-07T22:05:45.013Z,105.13
2018-03-07T22:08:12.724Z,102.43
2018-03-07T22:10:40.258Z,100.70
2018-03-07T22:13:08.020Z,106.67
2018-03-07T22:15:35.515Z,92.17
2018-03-07T22:18:03.033Z,96.33
2018-03-07T22:20:30.532Z,99.53
2018-03-07T22:22:58.792Z,95.53
2018-03-07T22:25:26.302Z,99.80
2018-03-07T22:27:53.975Z,101.27
2018-03-07T22:30:21.768Z,111.50
2018-03-07T22:32:49.264Z,95.33
2018-03-07T22:35:16.944Z,104.97
2018-03-07T22:37:44.444Z,105.27
2018-03-07T22:40:11.957Z,107.83
2018-03-07T22:42:39.564Z,109.60
2018-03-07T22:45:07.303Z,109.97
2018-03-07T22:47:34.803Z,105.10
2018-03-07T22:50:02.415Z,100.40
2018-03-07T22:52:30.091Z,104.80
2018-03-07T22:54:57.851Z,100.00
2018-03-07T22:57:25.623Z,98.17
2018-03-07T22:59:53.148Z,98.60
2018-03-07T23:02:20.797Z,88.37
2018-03-07T23:04:48.304Z,99.37
2018-03-07T23:07:15.815Z,95.13
2018-03-07T23:09:43.486Z,99.37
2018-03-07T23:12:11.276Z,102.23
2018-03-07T23:14:38.813Z,99.00
2018-03-07T23:17:06.500Z,93.50
2018-03-07T23:19:34.264Z,96.33
2018-03-07T23:22:02.025Z,104.30
2018-03-07T23:24:29.530Z,109.50
2018-03-07T23:26:57.032Z,97.13
2018-03-07T23:29:24.669Z,100.80
2018-03-07T23:31:52.187Z,89.67
2018-03-07T23:34:19.791Z,90.60
2018-03-07T23:36:47.302Z,94.33
2018-03-07T23:39:15.754Z,96.07
2018-03-07T23:41:43.263Z,92.87
2018-03-07T23:44:10.795Z,101.03
2018-03-07T23:46:38.435Z,97.60
2018-03-07T23:49:05.939Z,99.73
2018-03-07T23:51:33.652Z,103.67
2018-03-07T23:54:01.146Z,101.33
2018-03-07T23:56:28.848Z,103.53
2018-03-07T23:58:56.636Z,111.83
